createdAt,value
2023-04-25T04:44:53.255Z,99637.31
2023-04-25T04:47:42.990Z,99636.48
2023-04-25T04:50:36.740Z,99637.41
2023-04-25T04:53:23.385Z,99635.70
2023-04-25T04:56:24.411Z,99640.76
2023-04-25T04:59:14.108Z,99639.55
2023-04-25T05:02:13.480Z,99637.10
2023-04-25T05:05:09.788Z,99633.30
2023-04-25T05:07:50.832Z,99626.98
2023-04-25T05:10:36.665Z,99620.84
2023-04-25T05:13:11.231Z,99620.25
2023-04-25T05:15:51.401Z,99618.59
2023-04-25T05:18:49.615Z,99611.34
2023-04-25T05:21:46.795Z,99613.30
2023-04-25T05:24:45.157Z,99617.69
2023-04-25T05:27:25.073Z,99615.45
2023-04-25T05:30:15.647Z,99609.03
2023-04-25T05:33:23.641Z,99605.61
2023-04-25T05:36:46.203Z,99606.30
2023-04-25T05:39:54.979Z,99608.06
2023-04-25T05:45:54.796Z,99603.48
2023-04-25T05:48:46.016Z,99601.86
2023-04-25T05:51:32.854Z,99600.23
2023-04-25T05:54:11.994Z,99600.20
2023-04-25T05:56:42.293Z,99598.59
2023-04-25T05:59:15.231Z,99591.89
2023-04-25T06:01:43.044Z,99590.98
2023-04-25T06:04:13.013Z,99588.27
2023-04-25T06:06:42.360Z,99587.30
2023-04-25T06:09:14.398Z,99577.59
2023-04-25T06:11:43.053Z,99577.43
2023-04-25T06:14:11.552Z,99577.45
2023-04-25T06:16:42.099Z,99574.60
2023-04-25T06:19:15.693Z,99575.27
2023-04-25T06:21:44.576Z,99571.84
2023-04-25T06:24:11.702Z,99566.79
2023-04-25T06:26:41.186Z,99561.02
2023-04-25T06:29:08.549Z,99562.41
2023-04-25T06:31:35.762Z,99561.86
2023-04-25T06:34:03.539Z,99561.52
2023-04-25T06:36:31.468Z,99560.83
2023-04-25T06:39:03.612Z,99562.91
2023-04-25T06:41:31.817Z,99562.80
2023-04-25T06:44:00.229Z,99557.70
2023-04-25T06:46:33.684Z,99557.48
2023-04-25T06:49:01.168Z,99556.77
2023-04-25T06:51:30.888Z,99555.90
2023-04-25T06:53:58.121Z,99554.13
2023-04-25T06:56:31.996Z,99556.73
2023-04-25T06:59:09.240Z,99552.34
2023-04-25T07:01:38.914Z,99551.08
2023-04-25T07:04:11.016Z,99553.87
2023-04-25T07:06:50.962Z,99555.80
2023-04-25T07:09:43.547Z,99556.53
2023-04-25T07:12:16.568Z,99559.54
2023-04-25T07:14:49.196Z,99554.20
2023-04-25T07:17:21.427Z,99549.14
2023-04-25T07:19:48.354Z,99557.58
2023-04-25T07:22:17.279Z,99554.65
2023-04-25T07:24:46.090Z,99551.48
2023-04-25T07:27:13.699Z,99545.70
2023-04-25T07:29:57.026Z,99543.94
2023-04-25T07:32:24.347Z,99543.19
2023-04-25T07:34:52.363Z,99539.56
2023-04-25T07:37:21.595Z,99535.66
2023-04-25T07:40:07.285Z,99531.55
2023-04-25T07:42:34.431Z,99524.77
2023-04-25T07:45:02.429Z,99526.38
2023-04-25T07:47:30.350Z,99521.77
2023-04-25T07:49:59.756Z,99518.83
2023-04-25T07:52:26.864Z,99521.17
2023-04-25T07:55:02.367Z,99523.52
2023-04-25T07:58:00.567Z,99523.10
2023-04-25T08:00:31.832Z,99529.84
2023-04-25T08:03:37.245Z,99529.72
2023-04-25T08:06:09.640Z,99530.80
2023-04-25T08:08:53.332Z,99527.41
2023-04-25T08:11:22.388Z,99526.00
2023-04-25T08:13:51.136Z,99523.33
2023-04-25T08:16:18.725Z,99522.80
2023-04-25T08:18:47.811Z,99520.86
2023-04-25T08:21:16.762Z,99519.42
2023-04-25T08:23:45.424Z,99512.44
2023-04-25T08:26:33.731Z,99511.42
2023-04-25T08:29:01.876Z,99513.66
2023-04-25T08:31:40.432Z,99510.27
2023-04-25T08:34:13.510Z,99503.95
2023-04-25T08:36:50.434Z,99499.77
2023-04-25T08:39:24.063Z,99497.73
2023-04-25T08:42:47.346Z,99492.98
2023-04-25T08:45:19.520Z,99489.27
2023-04-25T08:47:46.981Z,99486.20
2023-04-25T08:50:14.810Z,99481.04
2023-04-25T08:52:46.618Z,99482.42
2023-04-25T08:55:15.344Z,99484.85
2023-04-25T08:57:44.120Z,99484.80
2023-04-25T09:00:29.042Z,99483.65
2023-04-25T09:03:00.383Z,99480.98
2023-04-25T09:05:31.331Z,99475.91
2023-04-25T09:07:59.289Z,99472.20
2023-04-25T09:10:26.947Z,99470.97
2023-04-25T09:13:10.345Z,99470.85
2023-04-25T09:15:59.069Z,99469.16
2023-04-25T09:19:06.087Z,99466.48
2023-04-25T09:21:33.363Z,99464.90
2023-04-25T09:24:00.770Z,99463.54
2023-04-25T09:26:27.906Z,99464.05
2023-04-25T09:29:10.514Z,99464.21
2023-04-25T09:31:58.665Z,99455.25
2023-04-25T09:34:45.678Z,99454.50
2023-04-25T09:37:30.635Z,99449.31
2023-04-25T09:40:19.032Z,99449.43
2023-04-25T09:42:52.910Z,99446.99
2023-04-25T09:45:30.051Z,99446.70
2023-04-25T09:47:59.243Z,99443.34
2023-04-25T09:50:28.082Z,99447.50
2023-04-25T09:53:33.557Z,99446.17
2023-04-25T09:56:21.654Z,99442.21
2023-04-25T09:58:51.061Z,99437.03
2023-04-25T10:01:18.548Z,99433.37
2023-04-25T10:04:25.778Z,99429.94
2023-04-25T10:07:24.350Z,99430.20
2023-04-25T10:10:07.204Z,99426.84
2023-04-25T10:12:40.488Z,99425.78
2023-04-25T10:15:16.139Z,99422.48
2023-04-25T10:17:52.225Z,99418.75
2023-04-25T10:20:19.519Z,99414.10
2023-04-25T10:22:46.515Z,99415.50
2023-04-25T10:25:13.527Z,99415.99
2023-04-25T10:27:40.792Z,99417.70
2023-04-25T10:30:13.672Z,99417.18
2023-04-25T10:32:41.233Z,99419.81
2023-04-25T10:35:16.533Z,99418.98
2023-04-25T10:38:02.004Z,99417.17
2023-04-25T10:40:29.167Z,99414.52
2023-04-25T10:42:57.069Z,99408.30
2023-04-25T10:45:31.679Z,99409.09
2023-04-25T10:48:02.133Z,99411.66
2023-04-25T10:50:38.674Z,99407.02
2023-04-25T10:53:16.316Z,99403.63
2023-04-25T10:55:55.142Z,99399.95
2023-04-25T10:58:23.889Z,99397.46
2023-04-25T11:03:22.824Z,99391.44
2023-04-25T11:05:57.773Z,99390.23
2023-04-25T11:08:35.667Z,99384.03
2023-04-25T11:11:03.117Z,99384.73
2023-04-25T11:13:33.096Z,99379.98
2023-04-25T11:16:07.469Z,99379.02
2023-04-25T11:18:42.998Z,99374.16
2023-04-25T11:21:10.249Z,99374.52
2023-04-25T11:23:38.107Z,99365.03
2023-04-25T11:26:05.479Z,99355.45
2023-04-25T11:28:32.534Z,99356.70
2023-04-25T11:30:59.513Z,99351.67
2023-04-25T11:33:26.982Z,99352.52
2023-04-25T11:35:57.546Z,99347.52
2023-04-25T11:38:27.177Z,99349.34
2023-04-25T11:40:54.471Z,99348.34
2023-04-25T11:43:22.335Z,99351.00
2023-04-25T11:45:50.448Z,99350.15
2023-04-25T11:48:18.496Z,99353.13
2023-04-25T11:50:46.713Z,99355.95
2023-04-25T11:53:14.071Z,99358.56
2023-04-25T11:55:41.195Z,99357.21
2023-04-25T11:58:09.695Z,99352.69
2023-04-25T12:00:36.900Z,99353.51
2023-04-25T12:03:04.484Z,99353.61
2023-04-25T12:05:34.461Z,99350.27
2023-04-25T12:08:14.615Z,99347.80
2023-04-25T12:10:42.391Z,99342.16
2023-04-25T12:13:26.056Z,99340.73
2023-04-25T12:15:55.245Z,99337.03
2023-04-25T12:18:23.976Z,99329.34
2023-04-25T12:20:50.915Z,99324.56
